createdAt,value
2023-08-08T00:00:13.195Z,14.30
2023-08-08T00:02:58.951Z,14.31
2023-08-08T00:05:44.383Z,14.25
2023-08-08T00:08:30.321Z,14.14
2023-08-08T00:11:16.474Z,14.33
2023-08-08T00:14:01.620Z,14.34
2023-08-08T00:16:47.004Z,14.28
2023-08-08T00:19:32.659Z,14.36
2023-08-08T00:22:18.407Z,14.90
2023-08-08T00:25:04.090Z,14.39
2023-08-08T00:27:51.165Z,14.38
2023-08-08T00:30:36.620Z,14.34
2023-08-08T00:33:21.829Z,14.28
2023-08-08T00:36:07.401Z,13.85
2023-08-08T00:38:53.270Z,14.21
2023-08-08T00:41:38.691Z,14.14
2023-08-08T00:44:24.726Z,14.17
2023-08-08T00:47:11.149Z,14.04
2023-08-08T00:49:57.736Z,14.27
2023-08-08T00:52:44.125Z,14.77
2023-08-08T00:55:29.361Z,14.79
2023-08-08T00:58:15.302Z,14.11
2023-08-08T01:01:01.294Z,14.37
2023-08-08T01:03:46.944Z,13.94
2023-08-08T01:06:43.915Z,13.86
2023-08-08T01:09:44.660Z,13.82
2023-08-08T01:12:30.242Z,13.59
2023-08-08T01:15:16.324Z,14.05
2023-08-08T01:18:02.290Z,13.45
2023-08-08T01:20:48.534Z,13.96
2023-08-08T01:23:47.672Z,14.34
2023-08-08T01:26:33.778Z,13.66
2023-08-08T01:29:19.129Z,13.61
2023-08-08T01:32:05.292Z,13.99
2023-08-08T01:34:50.900Z,13.79
2023-08-08T01:37:45.534Z,14.46
2023-08-08T01:40:33.105Z,13.78
2023-08-08T01:43:19.805Z,13.79
2023-08-08T01:46:06.298Z,13.69
2023-08-08T01:48:51.524Z,13.66
2023-08-08T01:51:36.602Z,13.54
2023-08-08T01:54:21.666Z,13.96
2023-08-08T01:57:07.023Z,14.95
2023-08-08T01:59:52.450Z,14.11
2023-08-08T02:02:37.811Z,14.32
2023-08-08T02:05:24.031Z,14.20
2023-08-08T02:08:09.529Z,14.25
2023-08-08T02:10:54.767Z,14.03
2023-08-08T02:13:40.040Z,14.27
2023-08-08T02:16:25.617Z,14.26
2023-08-08T02:19:10.785Z,14.50
2023-08-08T02:21:56.625Z,14.24
2023-08-08T02:24:42.370Z,14.10
2023-08-08T02:27:27.938Z,14.34
2023-08-08T02:30:13.795Z,13.93
2023-08-08T02:32:59.619Z,13.51
2023-08-08T02:35:44.560Z,14.06
2023-08-08T02:38:29.544Z,13.66
2023-08-08T02:41:14.844Z,13.78
2023-08-08T02:44:00.133Z,14.49
2023-08-08T02:46:45.036Z,13.94
2023-08-08T02:49:30.716Z,14.17
2023-08-08T02:52:16.452Z,14.54
2023-08-08T02:55:03.656Z,14.05
2023-08-08T02:57:49.128Z,14.30
2023-08-08T03:00:34.581Z,14.02
2023-08-08T03:03:19.794Z,13.39
2023-08-08T03:06:06.544Z,13.50
2023-08-08T03:08:52.160Z,14.00
2023-08-08T03:11:38.839Z,13.37
2023-08-08T03:14:24.472Z,14.21
2023-08-08T03:17:09.787Z,14.41
2023-08-08T03:19:54.932Z,13.99
2023-08-08T03:22:40.648Z,13.53
2023-08-08T03:25:26.286Z,13.84
2023-08-08T03:28:11.592Z,13.77
2023-08-08T03:30:56.818Z,13.73
2023-08-08T03:33:43.250Z,13.49
2023-08-08T03:36:28.911Z,13.63
2023-08-08T03:39:14.430Z,14.02
2023-08-08T03:42:00.455Z,13.83
2023-08-08T03:44:46.304Z,13.65
2023-08-08T03:47:31.793Z,13.93
2023-08-08T03:50:16.914Z,13.69
2023-08-08T03:53:02.450Z,14.71
2023-08-08T03:55:47.714Z,14.15
2023-08-08T03:58:33.300Z,14.19
2023-08-08T04:01:18.938Z,13.96
2023-08-08T04:04:04.236Z,14.32
2023-08-08T04:06:49.652Z,14.10
2023-08-08T04:09:35.267Z,13.81
2023-08-08T04:12:21.197Z,14.05
2023-08-08T04:15:07.105Z,13.71
2023-08-08T04:17:52.916Z,13.86
2023-08-08T04:20:38.540Z,14.07
2023-08-08T04:23:26.833Z,13.86
2023-08-08T04:26:12.312Z,13.51
2023-08-08T04:28:57.782Z,14.14
2023-08-08T04:31:43.149Z,13.96
2023-08-08T04:34:28.121Z,13.75
2023-08-08T04:37:13.960Z,14.24
2023-08-08T04:39:59.490Z,13.81
2023-08-08T04:42:45.384Z,14.07
2023-08-08T04:45:30.856Z,13.73
2023-08-08T04:48:16.254Z,13.80
2023-08-08T04:51:01.550Z,14.13
2023-08-08T04:53:47.086Z,14.26
2023-08-08T04:56:32.425Z,13.99
2023-08-08T04:59:18.065Z,14.06
2023-08-08T05:02:03.872Z,14.01
2023-08-08T05:04:49.286Z,14.12
2023-08-08T05:07:38.119Z,14.45
2023-08-08T05:10:24.012Z,14.09
2023-08-08T05:13:12.023Z,14.03
2023-08-08T05:15:56.949Z,14.15
2023-08-08T05:18:42.502Z,14.13
2023-08-08T05:21:28.043Z,14.30
2023-08-08T05:24:13.876Z,14.44
2023-08-08T05:26:59.036Z,14.98
2023-08-08T05:29:44.472Z,14.50
2023-08-08T05:32:29.708Z,14.58
2023-08-08T05:35:15.471Z,14.50
2023-08-08T05:38:00.433Z,14.44
2023-08-08T05:40:46.128Z,14.38
2023-08-08T05:43:31.560Z,14.52
2023-08-08T05:46:19.002Z,14.60
2023-08-08T05:49:04.393Z,14.90
2023-08-08T05:51:50.872Z,14.94
2023-08-08T05:54:36.277Z,14.83
2023-08-08T05:57:23.141Z,14.68
2023-08-08T06:00:11.961Z,14.73
2023-08-08T06:02:57.224Z,14.62
2023-08-08T06:05:42.884Z,14.92
2023-08-08T06:08:27.891Z,14.81
2023-08-08T06:11:13.854Z,14.92
2023-08-08T06:13:59.055Z,14.95
2023-08-08T06:16:44.749Z,14.95
2023-08-08T06:19:30.116Z,15.13
2023-08-08T06:22:15.394Z,15.51
2023-08-08T06:25:00.742Z,15.50
2023-08-08T06:27:47.935Z,15.66
2023-08-08T06:30:33.308Z,15.79
2023-08-08T06:33:18.855Z,15.89
2023-08-08T06:36:05.059Z,16.13
2023-08-08T06:38:50.379Z,16.04
2023-08-08T06:41:36.003Z,16.04
2023-08-08T06:44:22.569Z,16.06
2023-08-08T06:47:07.964Z,15.94
2023-08-08T06:49:53.174Z,16.08
2023-08-08T06:52:38.510Z,16.02
2023-08-08T06:55:23.874Z,15.84
2023-08-08T06:58:09.552Z,15.94
2023-08-08T07:00:55.230Z,15.81
2023-08-08T07:03:41.055Z,16.12
2023-08-08T07:06:26.537Z,16.26
2023-08-08T07:09:13.053Z,16.08
2023-08-08T07:11:58.895Z,16.03
2023-08-08T07:14:44.416Z,16.30
2023-08-08T07:17:29.883Z,16.35
2023-08-08T07:20:15.282Z,16.53
2023-08-08T07:23:01.937Z,16.43
2023-08-08T07:25:49.354Z,16.26
2023-08-08T07:28:37.699Z,16.01
2023-08-08T07:31:23.351Z,15.83
2023-08-08T07:34:08.590Z,15.60
2023-08-08T07:36:53.897Z,15.62
2023-08-08T07:39:39.480Z,15.68
2023-08-08T07:42:24.946Z,15.73
2023-08-08T07:45:11.309Z,16.07
2023-08-08T07:47:58.299Z,16.62
2023-08-08T07:50:43.728Z,17.10
2023-08-08T07:53:29.249Z,17.56
2023-08-08T07:56:16.883Z,17.73
2023-08-08T07:59:03.425Z,17.51
2023-08-08T08:01:48.394Z,17.66
2023-08-08T08:04:33.991Z,17.94
2023-08-08T08:07:19.302Z,18.20
2023-08-08T08:10:06.451Z,18.32
2023-08-08T08:12:53.274Z,18.38
2023-08-08T08:15:39.324Z,18.73
2023-08-08T08:18:24.951Z,18.98
2023-08-08T08:21:10.529Z,18.93
2023-08-08T08:23:56.133Z,18.77
2023-08-08T08:26:41.224Z,18.58
2023-08-08T08:29:26.315Z,18.51
2023-08-08T08:32:11.729Z,18.20
2023-08-08T08:34:57.308Z,18.05
2023-08-08T08:37:42.780Z,17.83
2023-08-08T08:40:29.588Z,17.95
2023-08-08T08:43:15.292Z,18.01
2023-08-08T08:46:04.995Z,17.94
2023-08-08T08:48:55.773Z,17.87
2023-08-08T08:51:41.467Z,17.35
2023-08-08T08:54:26.695Z,16.93
2023-08-08T08:57:14.216Z,16.87
2023-08-08T09:00:00.613Z,16.79
2023-08-08T09:02:46.435Z,16.73
2023-08-08T09:05:33.733Z,16.79
2023-08-08T09:08:19.063Z,16.74
2023-08-08T09:11:04.803Z,16.74
2023-08-08T09:13:52.276Z,16.81
2023-08-08T09:16:37.822Z,16.94
2023-08-08T09:19:23.316Z,17.11
2023-08-08T09:22:10.786Z,17.61
2023-08-08T09:24:56.390Z,17.89
2023-08-08T09:27:44.425Z,18.36
2023-08-08T09:30:32.209Z,18.70
2023-08-08T09:33:19.306Z,18.72
2023-08-08T09:36:06.097Z,18.38
2023-08-08T09:38:51.240Z,18.35
2023-08-08T09:41:37.133Z,18.73
2023-08-08T09:44:30.045Z,18.54
2023-08-08T09:47:15.923Z,19.08
2023-08-08T09:50:03.172Z,19.37
2023-08-08T09:52:48.723Z,19.47
2023-08-08T09:55:36.341Z,19.05
2023-08-08T09:58:23.208Z,18.74
2023-08-08T10:01:10.370Z,18.72
2023-08-08T10:03:57.796Z,18.73
2023-08-08T10:06:43.093Z,19.07
2023-08-08T10:09:28.949Z,19.24
2023-08-08T10:12:14.977Z,19.15
2023-08-08T10:15:00.416Z,19.01
2023-08-08T10:17:45.562Z,19.47
2023-08-08T10:20:33.950Z,20.01
2023-08-08T10:23:20.706Z,20.64
2023-08-08T10:26:07.622Z,20.27
2023-08-08T10:29:00.352Z,19.88
2023-08-08T10:31:53.766Z,19.19
2023-08-08T10:34:40.631Z,18.17
2023-08-08T10:37:26.078Z,17.36
2023-08-08T10:40:12.704Z,16.65
2023-08-08T10:42:58.130Z,16.53
2023-08-08T10:45:44.820Z,16.45
2023-08-08T10:48:30.735Z,16.90
2023-08-08T10:51:16.889Z,17.45
2023-08-08T10:54:08.007Z,17.82
2023-08-08T10:56:56.536Z,17.82
2023-08-08T10:59:41.552Z,18.04
2023-08-08T11:02:27.602Z,18.30
2023-08-08T11:05:13.850Z,18.35
2023-08-08T11:08:00.869Z,18.48
2023-08-08T11:10:46.346Z,18.51
2023-08-08T11:13:32.198Z,18.64
2023-08-08T11:16:17.274Z,18.83
2023-08-08T11:19:02.898Z,18.98
2023-08-08T11:21:50.588Z,19.28
2023-08-08T11:24:36.800Z,19.63
2023-08-08T11:30:10.813Z,20.44
2023-08-08T11:35:47.951Z,20.90
2023-08-08T11:38:34.676Z,20.77
2023-08-08T11:41:24.654Z,21.13
2023-08-08T11:44:10.316Z,21.41
2023-08-08T11:46:55.739Z,21.37
2023-08-08T11:49:43.887Z,21.54
2023-08-08T11:52:29.630Z,21.07
2023-08-08T11:55:15.278Z,20.65
2023-08-08T11:58:05.680Z,20.51
2023-08-08T12:00:52.786Z,20.48
2023-08-08T12:03:40.725Z,21.48
2023-08-08T12:06:29.962Z,21.61
2023-08-08T12:09:15.836Z,22.19
2023-08-08T12:12:02.622Z,21.68
2023-08-08T12:14:51.436Z,21.37
2023-08-08T12:17:44.185Z,21.86
2023-08-08T12:20:33.547Z,22.35
2023-08-08T12:23:18.906Z,21.77
2023-08-08T12:26:06.330Z,21.82
2023-08-08T12:28:53.994Z,22.00
2023-08-08T12:31:41.067Z,21.84
2023-08-08T12:34:26.163Z,21.69
2023-08-08T12:37:12.732Z,21.09
2023-08-08T12:39:58.784Z,20.70
2023-08-08T12:42:43.598Z,20.50
2023-08-08T12:45:30.251Z,21.09
2023-08-08T12:48:15.483Z,21.56
2023-08-08T12:51:01.310Z,22.11
2023-08-08T12:53:46.556Z,22.42
2023-08-08T12:56:31.913Z,22.76
2023-08-08T12:59:17.199Z,22.11
2023-08-08T13:02:04.574Z,21.65
2023-08-08T13:04:50.383Z,21.35
2023-08-08T13:07:36.346Z,21.02
2023-08-08T13:10:21.942Z,21.03
2023-08-08T13:13:07.264Z,20.84
2023-08-08T13:15:52.672Z,20.57
2023-08-08T13:18:38.103Z,20.35
2023-08-08T13:21:24.093Z,20.67
2023-08-08T13:24:11.096Z,20.62
2023-08-08T13:26:56.720Z,20.78
2023-08-08T13:29:41.685Z,20.71
2023-08-08T13:32:27.183Z,20.42
2023-08-08T13:35:12.387Z,20.36
2023-08-08T13:37:58.462Z,20.34
2023-08-08T13:40:44.393Z,19.84
2023-08-08T13:43:31.076Z,19.47
2023-08-08T13:46:16.521Z,19.31
2023-08-08T13:49:02.142Z,19.29
2023-08-08T13:51:49.276Z,18.91
2023-08-08T13:54:36.664Z,17.94
2023-08-08T13:57:21.873Z,16.91
2023-08-08T14:00:08.540Z,16.78
2023-08-08T14:02:54.437Z,16.77
2023-08-08T14:05:40.354Z,17.06
2023-08-08T14:08:25.873Z,17.10
2023-08-08T14:11:11.000Z,17.34
2023-08-08T14:13:56.464Z,17.34
2023-08-08T14:16:41.968Z,17.46
2023-08-08T14:19:27.586Z,17.45
2023-08-08T14:22:15.397Z,17.87
2023-08-08T14:25:00.758Z,18.74
2023-08-08T14:27:47.277Z,19.28
2023-08-08T14:30:32.207Z,19.74
2023-08-08T14:33:18.687Z,19.97
2023-08-08T14:36:04.134Z,20.14
2023-08-08T14:38:49.892Z,20.65
2023-08-08T14:41:35.233Z,20.57
2023-08-08T14:44:21.058Z,20.67
2023-08-08T14:47:07.351Z,19.84
2023-08-08T14:49:53.937Z,19.36
2023-08-08T14:52:39.741Z,19.03
2023-08-08T14:55:25.290Z,18.83
2023-08-08T14:58:10.403Z,18.45
2023-08-08T15:00:56.098Z,18.38
2023-08-08T15:03:42.683Z,18.40
2023-08-08T15:06:28.278Z,18.74
2023-08-08T15:09:14.787Z,19.48
2023-08-08T15:11:59.849Z,19.51
2023-08-08T15:14:45.542Z,19.16
2023-08-08T15:17:30.897Z,19.25
2023-08-08T15:20:16.496Z,19.54
2023-08-08T15:23:01.707Z,19.78
2023-08-08T15:25:47.059Z,19.43
2023-08-08T15:28:33.190Z,19.25
2023-08-08T15:31:18.606Z,19.08
2023-08-08T15:34:04.777Z,18.83
2023-08-08T15:36:51.106Z,18.57
2023-08-08T15:39:37.066Z,18.39
2023-08-08T15:42:22.035Z,17.80
2023-08-08T15:45:09.060Z,17.72
2023-08-08T15:47:54.354Z,17.70
2023-08-08T15:50:39.938Z,17.46
2023-08-08T15:53:25.887Z,17.63
2023-08-08T15:56:11.147Z,17.72
2023-08-08T15:58:56.594Z,17.98
2023-08-08T16:01:42.054Z,18.02
2023-08-08T16:04:28.261Z,17.88
2023-08-08T16:07:18.913Z,17.85
2023-08-08T16:10:05.118Z,18.08
2023-08-08T16:12:50.746Z,18.17
2023-08-08T16:15:36.064Z,18.37
2023-08-08T16:18:21.733Z,18.40
2023-08-08T16:21:07.758Z,18.61
2023-08-08T16:23:53.217Z,18.65
2023-08-08T16:26:38.999Z,18.68
2023-08-08T16:29:24.983Z,18.59
2023-08-08T16:32:12.697Z,18.66
2023-08-08T16:34:58.122Z,18.70
2023-08-08T16:37:43.209Z,18.63
2023-08-08T16:40:29.664Z,18.67
2023-08-08T16:43:17.503Z,18.38
2023-08-08T16:46:03.028Z,18.38
2023-08-08T16:48:48.613Z,18.34
2023-08-08T16:51:34.979Z,18.08
2023-08-08T16:54:22.305Z,18.04
2023-08-08T16:57:07.415Z,18.20
2023-08-08T16:59:53.074Z,18.37
2023-08-08T17:02:38.338Z,18.30
2023-08-08T17:05:24.079Z,18.27
2023-08-08T17:08:09.188Z,18.11
2023-08-08T17:11:04.707Z,18.14
2023-08-08T17:13:49.869Z,18.07
2023-08-08T17:16:35.797Z,18.04
2023-08-08T17:19:21.397Z,18.11
2023-08-08T17:22:06.743Z,18.09
2023-08-08T17:24:52.550Z,17.98
2023-08-08T17:27:37.808Z,18.02
2023-08-08T17:30:23.240Z,17.92
2023-08-08T17:33:08.901Z,17.85
2023-08-08T17:35:54.252Z,17.92
2023-08-08T17:38:39.942Z,17.92
2023-08-08T17:41:28.010Z,17.98
2023-08-08T17:44:14.125Z,17.99
2023-08-08T17:47:00.323Z,17.84
2023-08-08T17:49:45.467Z,17.78
2023-08-08T17:52:34.232Z,17.71
2023-08-08T17:55:19.427Z,17.71
2023-08-08T17:58:04.937Z,17.64
2023-08-08T18:00:50.591Z,17.64
2023-08-08T18:03:36.487Z,17.59
2023-08-08T18:06:21.517Z,17.54
2023-08-08T18:09:07.797Z,17.42
2023-08-08T18:11:53.170Z,17.35
2023-08-08T18:14:39.830Z,17.27
2023-08-08T18:17:28.188Z,17.24
2023-08-08T18:20:14.507Z,17.23
2023-08-08T18:23:00.102Z,17.26
2023-08-08T18:25:47.007Z,17.19
2023-08-08T18:28:33.284Z,17.12
2023-08-08T18:31:21.310Z,17.15
2023-08-08T18:34:07.862Z,17.10
2023-08-08T18:36:54.826Z,17.10
2023-08-08T18:39:40.051Z,17.02
2023-08-08T18:42:25.795Z,17.06
2023-08-08T18:45:11.496Z,17.12
2023-08-08T18:47:57.234Z,16.93
2023-08-08T18:50:43.109Z,17.04
2023-08-08T18:53:29.543Z,16.86
2023-08-08T18:56:16.704Z,16.89
2023-08-08T18:59:02.184Z,16.86
2023-08-08T19:01:50.891Z,16.75
2023-08-08T19:04:36.046Z,16.79
2023-08-08T19:07:22.168Z,16.79
2023-08-08T19:10:09.517Z,16.83
2023-08-08T19:12:55.428Z,16.66
2023-08-08T19:15:42.377Z,16.73
2023-08-08T19:18:28.112Z,16.80
2023-08-08T19:21:14.261Z,16.76
2023-08-08T19:23:59.415Z,16.65
2023-08-08T19:26:45.256Z,16.73
2023-08-08T19:29:31.063Z,16.66
2023-08-08T19:32:16.803Z,16.57
2023-08-08T19:35:07.226Z,16.54
2023-08-08T19:37:53.177Z,16.38
2023-08-08T19:40:38.886Z,16.36
2023-08-08T19:43:24.567Z,16.45
2023-08-08T19:46:11.724Z,16.31
2023-08-08T19:48:59.839Z,16.33
2023-08-08T19:51:47.844Z,16.16
2023-08-08T19:54:33.781Z,16.11
2023-08-08T19:57:19.321Z,16.42
2023-08-08T20:00:05.190Z,16.07
2023-08-08T20:02:52.126Z,16.07
2023-08-08T20:05:37.423Z,16.20
2023-08-08T20:08:24.109Z,16.08
2023-08-08T20:11:09.770Z,15.88
2023-08-08T20:14:04.445Z,16.35
2023-08-08T20:16:49.950Z,16.01
2023-08-08T20:19:35.564Z,16.02
2023-08-08T20:22:21.336Z,16.00
2023-08-08T20:25:06.980Z,16.03
2023-08-08T20:27:52.351Z,15.82
2023-08-08T20:30:38.240Z,15.85
2023-08-08T20:33:24.153Z,15.87
2023-08-08T20:36:09.857Z,16.14
2023-08-08T20:38:58.910Z,15.99
2023-08-08T20:41:44.729Z,16.01
2023-08-08T20:44:30.402Z,16.05
2023-08-08T20:47:18.533Z,16.06
2023-08-08T20:50:05.674Z,15.76
2023-08-08T20:52:50.820Z,16.01
2023-08-08T20:55:37.871Z,16.40
2023-08-08T20:58:23.238Z,15.93
2023-08-08T21:01:08.971Z,16.37
2023-08-08T21:03:55.648Z,16.05
2023-08-08T21:06:41.226Z,15.86
2023-08-08T21:09:27.103Z,15.70
2023-08-08T21:12:15.585Z,16.00
2023-08-08T21:15:01.392Z,15.69
2023-08-08T21:17:47.512Z,16.17
2023-08-08T21:20:33.112Z,16.08
2023-08-08T21:23:18.292Z,16.03
2023-08-08T21:26:04.206Z,15.99
2023-08-08T21:28:50.520Z,16.34
2023-08-08T21:31:36.200Z,16.46
2023-08-08T21:34:21.520Z,16.11
2023-08-08T21:37:07.230Z,16.08
2023-08-08T21:39:53.917Z,15.23
2023-08-08T21:42:39.358Z,15.49
2023-08-08T21:45:25.291Z,15.99
2023-08-08T21:48:10.669Z,16.16
2023-08-08T21:50:58.178Z,15.74
2023-08-08T21:53:43.546Z,15.99
2023-08-08T21:56:28.482Z,15.93
2023-08-08T21:59:13.790Z,16.04
2023-08-08T22:01:58.938Z,16.14
2023-08-08T22:04:44.152Z,15.89
2023-08-08T22:07:29.436Z,15.99
2023-08-08T22:10:17.098Z,15.75
2023-08-08T22:13:03.021Z,15.81
2023-08-08T22:15:48.456Z,15.93
2023-08-08T22:18:34.040Z,16.54
2023-08-08T22:21:19.508Z,16.58
2023-08-08T22:24:05.127Z,16.18
2023-08-08T22:26:51.187Z,16.17
2023-08-08T22:29:36.159Z,16.12
2023-08-08T22:32:21.676Z,15.89
2023-08-08T22:35:07.148Z,15.73
2023-08-08T22:37:53.623Z,16.23
2023-08-08T22:40:38.788Z,15.84
2023-08-08T22:43:24.688Z,15.83
2023-08-08T22:46:09.837Z,15.54
2023-08-08T22:48:55.709Z,15.42
2023-08-08T22:51:41.446Z,15.73
2023-08-08T22:54:27.765Z,15.39
2023-08-08T22:57:13.360Z,15.74
2023-08-08T22:59:59.269Z,15.94
2023-08-08T23:02:45.163Z,16.11
2023-08-08T23:05:30.312Z,16.08
2023-08-08T23:08:18.461Z,16.26
2023-08-08T23:11:03.778Z,16.22
2023-08-08T23:13:49.856Z,16.33
2023-08-08T23:16:34.928Z,15.57
2023-08-08T23:19:21.149Z,16.28
2023-08-08T23:22:06.402Z,16.59
2023-08-08T23:24:51.627Z,16.33
2023-08-08T23:27:36.778Z,16.14
2023-08-08T23:30:22.009Z,16.18
2023-08-08T23:33:07.372Z,16.41
2023-08-08T23:35:52.810Z,16.48
2023-08-08T23:38:37.964Z,16.60
2023-08-08T23:41:23.160Z,16.37
2023-08-08T23:44:08.472Z,16.48
2023-08-08T23:46:53.480Z,16.67
2023-08-08T23:49:40.247Z,16.52
2023-08-08T23:52:26.223Z,16.23
2023-08-08T23:55:13.020Z,16.38
2023-08-08T23:57:57.919Z,16.11
